Time;durP1;ratioP1;P1;durP2;ratioP2;P2;SDS_P1;SDS_P2;PMS_P1;PMS_P2;Temp;Humidity;BMP_temperature;BMP_pressure;BME280_temperature;BME280_humidity;BME280_pressure;Samples;Min_cycle;Max_cycle;Signal;HPM_P1;HPM_P2
2022/11/29 00:00:46;;;;;;;8.60;5.07;;;18.60;99.90;;;;;;4224029;28;20218;-76
2022/11/29 00:02:52;;;;;;;8.18;5.07;;;18.60;99.90;;;;;;4227768;28;20326;-76
2022/11/29 00:04:54;;;;;;;10.05;5.13;;;18.60;99.90;;;;;;4219473;28;20226;-76
2022/11/29 00:06:56;;;;;;;9.98;5.55;;;18.60;99.90;;;;;;4217685;28;20240;-77
2022/11/29 00:09:00;;;;;;;10.32;5.35;;;18.60;99.90;;;;;;4209656;28;20975;-76
2022/11/29 00:11:04;;;;;;;8.25;5.13;;;18.60;99.90;;;;;;4227654;28;20210;-76
2022/11/29 00:13:05;;;;;;;9.55;4.95;;;18.60;99.90;;;;;;4219650;28;20618;-76
2022/11/29 00:15:09;;;;;;;7.45;5.07;;;18.50;99.90;;;;;;4216538;28;20253;-74
2022/11/29 00:17:12;;;;;;;8.43;5.45;;;18.50;99.90;;;;;;4215038;28;20275;-74
2022/11/29 00:19:14;;;;;;;7.47;5.45;;;18.50;99.90;;;;;;4225835;28;20283;-74
2022/11/29 00:21:16;;;;;;;8.70;5.50;;;18.50;99.90;;;;;;4223920;28;20648;-73
2022/11/29 00:23:18;;;;;;;10.13;5.53;;;18.50;99.90;;;;;;4228346;28;20234;-74
2022/11/29 00:25:21;;;;;;;8.73;5.50;;;18.50;99.90;;;;;;4228461;28;20263;-74
2022/11/29 00:27:23;;;;;;;9.43;4.95;;;18.50;99.90;;;;;;4221025;28;20530;-74
2022/11/29 00:29:25;;;;;;;12.68;5.15;;;18.50;99.90;;;;;;4225365;28;20541;-74
2022/11/29 00:31:31;;;;;;;10.15;5.00;;;18.50;99.90;;;;;;4218213;28;20218;-74
2022/11/29 00:33:33;;;;;;;9.85;5.45;;;18.50;99.90;;;;;;4224048;28;20291;-74
2022/11/29 00:35:36;;;;;;;8.50;4.75;;;18.50;99.90;;;;;;4228384;28;20233;-74
2022/11/29 00:37:38;;;;;;;9.98;5.40;;;18.50;99.90;;;;;;4228194;28;20582;-74
2022/11/29 00:39:41;;;;;;;7.30;5.05;;;18.50;99.90;;;;;;4228048;28;20214;-74
2022/11/29 00:41:43;;;;;;;8.20;4.82;;;18.50;99.90;;;;;;4228472;28;20214;-74
2022/11/29 00:43:45;;;;;;;8.10;5.05;;;18.50;99.90;;;;;;4227800;28;20274;-74
2022/11/29 00:45:48;;;;;;;8.02;5.13;;;18.50;99.90;;;;;;4228297;28;20218;-74
2022/11/29 00:47:51;;;;;;;8.90;5.68;;;18.50;99.90;;;;;;4232949;27;20278;-74
2022/11/29 00:49:54;;;;;;;10.88;4.78;;;18.50;99.90;;;;;;4224292;28;20266;-75
2022/11/29 00:51:56;;;;;;;8.65;5.45;;;18.50;99.90;;;;;;4226928;28;20621;-74
2022/11/29 00:53:58;;;;;;;8.70;5.05;;;18.40;99.90;;;;;;4226030;28;20221;-74
2022/11/29 00:56:01;;;;;;;10.35;4.93;;;18.40;99.90;;;;;;4224995;27;20238;-74
2022/11/29 00:58:03;;;;;;;8.73;5.47;;;18.50;99.90;;;;;;4227388;28;20221;-74
2022/11/29 01:00:07;;;;;;;9.77;5.13;;;18.40;99.90;;;;;;4226483;28;20230;-74
2022/11/29 01:02:09;;;;;;;6.68;4.47;;;18.40;99.90;;;;;;4225125;28;20636;-74
2022/11/29 01:04:13;;;;;;;10.10;5.28;;;18.40;99.90;;;;;;4226650;28;20259;-74
2022/11/29 01:06:18;;;;;;;8.18;5.03;;;18.40;99.90;;;;;;4226406;28;20221;-74
2022/11/29 01:08:20;;;;;;;7.30;4.50;;;18.40;99.90;;;;;;4225706;28;20266;-74
2022/11/29 01:10:22;;;;;;;9.38;5.35;;;18.40;99.90;;;;;;4225864;28;20225;-74
2022/11/29 01:12:25;;;;;;;7.72;4.70;;;18.40;99.90;;;;;;4225569;28;20213;-74
2022/11/29 01:14:27;;;;;;;8.32;5.28;;;18.40;99.90;;;;;;4226392;28;20217;-74
2022/11/29 01:16:32;;;;;;;9.45;5.43;;;18.40;99.90;;;;;;4229290;28;20326;-74
2022/11/29 01:18:35;;;;;;;7.28;5.05;;;18.40;99.90;;;;;;4229086;28;20213;-74
2022/11/29 01:20:39;;;;;;;7.55;4.78;;;18.40;99.90;;;;;;4230084;27;20213;-74
2022/11/29 01:22:43;;;;;;;9.40;5.22;;;18.40;99.90;;;;;;4239289;27;20271;-73
2022/11/29 01:24:45;;;;;;;9.70;5.50;;;18.40;99.90;;;;;;4239428;27;20213;-74
2022/11/29 01:26:47;;;;;;;9.38;5.35;;;18.40;99.90;;;;;;4236603;27;20214;-74
2022/11/29 01:28:51;;;;;;;8.13;5.20;;;18.40;99.90;;;;;;4238508;27;20658;-74
2022/11/29 01:30:54;;;;;;;8.73;5.10;;;18.40;99.90;;;;;;4239133;27;20263;-73
2022/11/29 01:32:56;;;;;;;7.72;4.75;;;18.40;99.90;;;;;;4239479;27;20217;-74
2022/11/29 01:34:58;;;;;;;6.97;4.95;;;18.40;99.90;;;;;;4236318;27;20321;-74
2022/11/29 01:37:02;;;;;;;7.53;4.55;;;18.30;99.90;;;;;;4235450;27;20302;-73
2022/11/29 01:39:06;;;;;;;9.23;5.07;;;18.30;99.90;;;;;;4237332;27;20213;-74
2022/11/29 01:41:12;;;;;;;9.63;5.13;;;18.40;99.90;;;;;;4237516;27;20217;-74
2022/11/29 01:43:16;;;;;;;8.55;5.40;;;18.30;99.90;;;;;;4237804;27;20276;-74
2022/11/29 01:45:24;;;;;;;7.00;4.80;;;18.30;99.90;;;;;;4240449;27;20213;-74
2022/11/29 01:47:27;;;;;;;9.18;4.95;;;18.30;99.90;;;;;;4237022;27;20204;-73
2022/11/29 01:49:32;;;;;;;6.40;4.20;;;18.30;99.90;;;;;;4238680;27;20713;-74
2022/11/29 01:51:38;;;;;;;8.15;4.70;;;18.30;99.90;;;;;;4235479;27;20273;-74
2022/11/29 01:53:42;;;;;;;8.45;5.07;;;18.30;99.90;;;;;;4237858;27;20295;-74
2022/11/29 01:55:50;;;;;;;9.02;4.43;;;18.30;99.90;;;;;;4233801;27;20213;-73
2022/11/29 01:57:52;;;;;;;9.20;4.95;;;18.20;99.90;;;;;;4238357;27;20216;-74
2022/11/29 02:00:00;;;;;;;9.77;5.00;;;18.30;99.90;;;;;;4237684;27;20209;-74
2022/11/29 02:02:06;;;;;;;7.70;4.90;;;18.30;99.90;;;;;;4234631;27;20225;-74
2022/11/29 02:04:09;;;;;;;7.43;4.70;;;18.30;99.90;;;;;;4234126;27;20225;-74
2022/11/29 02:06:11;;;;;;;8.85;5.35;;;18.30;99.90;;;;;;4237964;27;20299;-73
2022/11/29 02:08:19;;;;;;;7.85;4.78;;;18.20;99.90;;;;;;4235740;27;20274;-74
2022/11/29 02:10:31;;;;;;;9.82;4.82;;;18.30;99.90;;;;;;4235075;27;20245;-74
2022/11/29 02:12:43;;;;;;;8.48;4.45;;;18.30;99.90;;;;;;4230429;27;20218;-74
2022/11/29 02:15:01;;;;;;;8.85;5.38;;;18.20;99.90;;;;;;4238638;27;20664;-74
2022/11/29 02:17:10;;;;;;;6.97;4.65;;;18.20;99.90;;;;;;4236315;27;20277;-73
2022/11/29 02:19:32;;;;;;;10.25;4.63;;;18.20;99.90;;;;;;4233854;27;20285;-74
2022/11/29 02:21:43;;;;;;;8.68;4.82;;;18.20;99.90;;;;;;4233426;27;20305;-74
2022/11/29 02:24:30;;;;;;;7.47;4.72;;;18.20;99.90;;;;;;4235711;28;20289;-74
2022/11/29 02:26:58;;;;;;;10.60;5.07;;;18.20;99.90;;;;;;4234621;27;20210;-74
2022/11/29 02:29:30;;;;;;;7.60;5.53;;;18.20;99.90;;;;;;4232283;28;20218;-74
2022/11/29 02:32:13;;;;;;;9.30;5.05;;;18.20;99.90;;;;;;4229625;28;20214;-73
2022/11/29 02:34:45;;;;;;;8.02;4.75;;;18.20;99.90;;;;;;4213578;28;20222;-74
2022/11/29 02:37:04;;;;;;;9.82;5.03;;;18.20;99.90;;;;;;4215205;28;20237;-74
2022/11/29 02:39:38;;;;;;;8.98;4.72;;;18.10;99.90;;;;;;4227316;28;20250;-74
2022/11/29 02:41:57;;;;;;;8.45;4.50;;;18.10;99.90;;;;;;4225487;28;20657;-73
2022/11/29 02:44:18;;;;;;;6.60;4.30;;;18.20;99.90;;;;;;4228914;28;20213;-74
2022/11/29 02:46:42;;;;;;;8.48;4.88;;;18.10;99.90;;;;;;4231833;28;20225;-74
2022/11/29 02:48:55;;;;;;;6.60;4.90;;;18.10;99.90;;;;;;4238667;28;21005;-73
2022/11/29 02:51:04;;;;;;;8.13;4.63;;;18.10;99.90;;;;;;4235577;28;20213;-73
2022/11/29 02:53:17;;;;;;;7.78;4.75;;;18.10;99.90;;;;;;4233845;28;20225;-74
2022/11/29 02:55:28;;;;;;;7.00;4.80;;;18.10;99.90;;;;;;4233561;28;20715;-74
2022/11/29 02:57:38;;;;;;;7.57;4.90;;;18.10;99.90;;;;;;4237804;28;20241;-74
2022/11/29 02:59:49;;;;;;;8.20;4.88;;;18.10;99.90;;;;;;4236096;28;20217;-74
2022/11/29 03:01:58;;;;;;;7.25;4.80;;;18.10;99.90;;;;;;4232886;28;20264;-74
2022/11/29 03:04:10;;;;;;;8.60;4.90;;;18.10;99.90;;;;;;4233887;28;20262;-76
2022/11/29 03:06:19;;;;;;;8.95;4.65;;;18.10;99.90;;;;;;4235910;28;20229;-76
2022/11/29 03:08:34;;;;;;;8.70;4.82;;;18.10;99.90;;;;;;4230978;28;20229;-76
2022/11/29 03:10:46;;;;;;;8.50;4.68;;;18.10;99.90;;;;;;4236868;28;20811;-76
2022/11/29 03:12:51;;;;;;;9.70;4.93;;;18.10;99.90;;;;;;4230547;28;20270;-76
2022/11/29 03:15:00;;;;;;;6.22;4.68;;;18.10;99.90;;;;;;4236162;28;20255;-76
2022/11/29 03:17:13;;;;;;;6.90;4.70;;;18.10;99.90;;;;;;4236491;28;21086;-76
2022/11/29 03:19:40;;;;;;;7.32;4.80;;;18.10;99.90;;;;;;4235293;28;20296;-76
2022/11/29 03:21:52;;;;;;;7.85;4.80;;;18.10;99.90;;;;;;4186651;28;1224639;-76
2022/11/29 03:24:00;;;;;;;7.28;4.95;;;18.10;99.90;;;;;;4224625;28;20218;-76
2022/11/29 03:26:08;;;;;;;6.82;4.38;;;18.10;99.90;;;;;;4228283;28;20361;-76
2022/11/29 03:28:17;;;;;;;7.57;4.15;;;18.10;99.90;;;;;;4226848;28;20221;-76
2022/11/29 03:30:20;;;;;;;6.53;4.60;;;18.10;99.90;;;;;;4226378;28;21047;-76
2022/11/29 03:32:28;;;;;;;9.23;4.78;;;18.00;99.90;;;;;;4228083;28;20271;-76
2022/11/29 03:34:44;;;;;;;6.95;4.50;;;18.10;99.90;;;;;;4228010;28;20263;-76
2022/11/29 03:36:54;;;;;;;8.48;4.82;;;18.10;99.90;;;;;;4227707;28;20258;-75
2022/11/29 03:39:03;;;;;;;8.15;4.80;;;18.10;99.90;;;;;;4222934;28;20236;-75
2022/11/29 03:41:17;;;;;;;7.10;4.70;;;18.10;99.90;;;;;;4227889;28;20273;-75
2022/11/29 03:43:26;;;;;;;8.70;5.05;;;18.10;99.90;;;;;;4228071;28;20243;-75
2022/11/29 03:45:35;;;;;;;7.25;4.78;;;18.00;99.90;;;;;;4228241;28;20247;-75
2022/11/29 03:47:44;;;;;;;6.43;4.13;;;18.10;99.90;;;;;;4227402;28;20312;-75
2022/11/29 03:49:52;;;;;;;7.75;4.85;;;18.00;99.90;;;;;;4227434;28;20217;-75
2022/11/29 03:52:05;;;;;;;8.80;4.40;;;18.10;99.90;;;;;;4226138;28;20216;-75
2022/11/29 03:54:11;;;;;;;6.97;4.57;;;18.00;99.90;;;;;;4227673;28;20217;-75
2022/11/29 03:56:27;;;;;;;8.77;4.70;;;18.00;99.90;;;;;;4227199;28;20269;-75
2022/11/29 03:58:44;;;;;;;8.90;4.57;;;18.00;99.90;;;;;;4226570;28;20230;-75
2022/11/29 04:01:07;;;;;;;7.60;4.55;;;18.00;99.90;;;;;;4225825;28;20263;-75
2022/11/29 04:03:31;;;;;;;7.82;4.75;;;18.00;99.90;;;;;;4227810;28;20263;-75
2022/11/29 04:05:53;;;;;;;7.80;4.25;;;18.00;99.90;;;;;;4226111;28;20221;-75
2022/11/29 04:08:11;;;;;;;7.05;4.57;;;18.00;99.90;;;;;;4226090;28;20210;-75
2022/11/29 04:10:43;;;;;;;8.10;4.63;;;18.00;99.90;;;;;;4226840;28;20217;-75
2022/11/29 04:13:15;;;;;;;9.55;4.80;;;18.00;99.90;;;;;;4225485;28;20286;-75
2022/11/29 04:16:01;;;;;;;7.80;4.95;;;18.00;99.90;;;;;;4227075;28;20214;-75
2022/11/29 04:18:22;;;;;;;6.45;3.90;;;18.00;99.90;;;;;;4220446;28;20237;-75
2022/11/29 04:21:05;;;;;;;5.35;4.47;;;18.00;99.90;;;;;;4225650;28;20221;-75
2022/11/29 04:23:33;;;;;;;6.13;4.53;;;18.00;99.90;;;;;;4227820;28;20255;-75
2022/11/29 04:26:02;;;;;;;7.25;4.72;;;18.00;99.90;;;;;;4221070;28;20214;-75
2022/11/29 04:28:28;;;;;;;4.75;4.25;;;18.00;99.90;;;;;;4215842;28;20222;-75
2022/11/29 04:30:38;;;;;;;6.15;4.10;;;18.00;99.90;;;;;;4219324;28;20567;-75
2022/11/29 04:33:06;;;;;;;6.95;4.72;;;18.00;99.90;;;;;;4222799;28;20216;-75
2022/11/29 04:35:27;;;;;;;6.60;4.20;;;18.00;99.90;;;;;;4209863;28;20213;-75
2022/11/29 04:37:49;;;;;;;6.05;4.47;;;18.00;99.90;;;;;;4218359;28;20686;-75
2022/11/29 04:40:09;;;;;;;6.10;4.35;;;18.00;99.90;;;;;;4226187;28;20226;-75
2022/11/29 04:42:52;;;;;;;7.25;4.75;;;18.00;99.90;;;;;;4220441;28;20655;-75
2022/11/29 04:45:09;;;;;;;7.88;4.60;;;18.00;99.90;;;;;;4180049;28;20340;-75
2022/11/29 04:47:34;;;;;;;7.32;4.57;;;18.00;99.90;;;;;;4227164;28;20210;-75
2022/11/29 04:49:59;;;;;;;6.25;4.20;;;17.90;99.90;;;;;;4224294;28;20264;-75
2022/11/29 04:52:37;;;;;;;6.00;4.53;;;18.00;99.90;;;;;;4215237;28;20218;-76
2022/11/29 04:54:47;;;;;;;7.32;4.63;;;18.00;99.90;;;;;;4212137;28;20214;-76
2022/11/29 04:56:54;;;;;;;6.32;4.53;;;18.00;99.90;;;;;;4218279;28;20210;-76
2022/11/29 04:59:04;;;;;;;5.80;4.57;;;17.90;99.90;;;;;;4228030;28;20221;-76
2022/11/29 05:01:14;;;;;;;7.30;4.35;;;17.90;99.90;;;;;;4219813;28;20214;-76
2022/11/29 05:03:27;;;;;;;5.40;3.95;;;17.90;99.90;;;;;;4218975;28;20214;-76
2022/11/29 05:05:37;;;;;;;6.43;4.47;;;17.90;99.90;;;;;;4223320;28;20217;-76
2022/11/29 05:07:48;;;;;;;7.07;4.15;;;17.90;99.90;;;;;;4224455;28;20331;-76
2022/11/29 05:10:02;;;;;;;7.07;4.60;;;18.00;99.90;;;;;;4218829;28;20218;-76
2022/11/29 05:12:14;;;;;;;5.75;4.13;;;17.90;99.90;;;;;;4227701;28;20247;-76
2022/11/29 05:14:27;;;;;;;5.95;4.20;;;17.90;99.90;;;;;;4223093;28;20218;-76
2022/11/29 05:16:46;;;;;;;8.30;4.63;;;17.90;99.90;;;;;;4228137;28;20210;-76
2022/11/29 05:19:16;;;;;;;7.70;4.60;;;17.90;99.90;;;;;;4217340;28;20230;-76
2022/11/29 05:21:27;;;;;;;5.97;4.22;;;17.90;99.90;;;;;;4227194;28;20233;-76
2022/11/29 05:23:40;;;;;;;6.45;4.15;;;17.90;99.90;;;;;;4227343;28;20247;-75
2022/11/29 05:25:50;;;;;;;6.45;4.15;;;17.90;99.90;;;;;;4227846;28;20213;-75
2022/11/29 05:27:58;;;;;;;7.20;4.60;;;17.90;99.90;;;;;;4228149;28;20263;-75
2022/11/29 05:30:07;;;;;;;6.28;4.13;;;17.90;99.90;;;;;;4227796;28;20209;-75
2022/11/29 05:32:28;;;;;;;5.50;4.10;;;17.90;99.90;;;;;;4226144;28;20677;-75
2022/11/29 05:34:59;;;;;;;5.72;4.28;;;17.90;99.90;;;;;;4226660;28;20218;-75
2022/11/29 05:37:14;;;;;;;6.28;4.05;;;17.90;99.90;;;;;;4225727;28;20225;-75
2022/11/29 05:39:32;;;;;;;6.25;4.40;;;17.90;99.90;;;;;;4225588;28;20230;-75
2022/11/29 05:41:52;;;;;;;6.57;4.18;;;17.90;99.90;;;;;;4224983;28;20990;-75
2022/11/29 05:44:04;;;;;;;5.30;4.07;;;17.90;99.90;;;;;;4226456;28;20248;-75
2022/11/29 05:46:17;;;;;;;5.50;4.35;;;17.90;99.90;;;;;;4225048;28;20238;-75
2022/11/29 05:48:28;;;;;;;5.88;4.28;;;17.90;99.90;;;;;;4227501;28;20263;-75
2022/11/29 05:50:36;;;;;;;5.95;3.90;;;17.90;99.90;;;;;;4226460;28;20209;-75
2022/11/29 05:52:50;;;;;;;5.50;4.30;;;17.90;99.90;;;;;;4224486;28;20213;-75
2022/11/29 05:55:10;;;;;;;5.90;4.05;;;17.90;99.90;;;;;;4227170;28;20967;-75
2022/11/29 05:57:20;;;;;;;6.13;4.28;;;17.80;99.90;;;;;;4225344;28;20218;-75
2022/11/29 05:59:27;;;;;;;5.50;3.67;;;17.80;99.90;;;;;;4226114;28;20290;-75
2022/11/29 06:01:37;;;;;;;7.40;4.30;;;17.90;99.90;;;;;;4221741;28;20217;-75
2022/11/29 06:03:51;;;;;;;6.57;3.97;;;17.90;99.90;;;;;;4227607;28;20263;-75
2022/11/29 06:05:59;;;;;;;6.65;4.60;;;17.90;99.90;;;;;;4227918;28;20805;-75
2022/11/29 06:08:08;;;;;;;6.05;4.45;;;18.00;99.90;;;;;;4227377;28;20213;-75
2022/11/29 06:10:16;;;;;;;6.47;3.97;;;18.00;99.90;;;;;;4226601;28;20570;-75
2022/11/29 06:12:22;;;;;;;5.20;4.00;;;18.00;99.90;;;;;;4228905;28;20209;-75
2022/11/29 06:14:45;;;;;;;4.57;3.70;;;18.10;99.90;;;;;;4228909;28;20226;-75
2022/11/29 06:17:08;;;;;;;6.85;4.20;;;18.10;99.90;;;;;;4215825;28;20271;-75
2022/11/29 06:19:38;;;;;;;5.22;3.85;;;18.10;99.90;;;;;;4218269;28;20298;-75
2022/11/29 06:21:47;;;;;;;5.60;3.90;;;18.10;99.90;;;;;;4216888;28;20234;-75
2022/11/29 06:24:09;;;;;;;5.88;3.90;;;18.10;99.90;;;;;;4221868;28;20280;-75
2022/11/29 06:26:23;;;;;;;7.35;4.13;;;18.10;99.90;;;;;;4224964;28;20276;-75
2022/11/29 06:28:37;;;;;;;6.95;4.07;;;18.10;99.90;;;;;;4225728;28;20722;-75
2022/11/29 06:30:54;;;;;;;8.68;4.00;;;18.20;99.90;;;;;;4225957;28;20263;-75
2022/11/29 06:33:05;;;;;;;6.80;3.60;;;18.20;99.90;;;;;;4227517;28;20222;-75
2022/11/29 06:35:11;;;;;;;5.90;4.30;;;18.20;99.90;;;;;;4226522;28;20218;-75
2022/11/29 06:37:19;;;;;;;6.18;3.63;;;18.20;99.90;;;;;;4228254;28;20231;-75
2022/11/29 06:39:22;;;;;;;4.68;3.70;;;18.20;99.90;;;;;;4228957;28;20259;-75
2022/11/29 06:41:25;;;;;;;4.88;3.63;;;18.30;99.90;;;;;;4226067;28;20266;-75
2022/11/29 06:43:28;;;;;;;6.07;4.05;;;18.30;99.90;;;;;;4228336;28;20267;-75
2022/11/29 06:45:31;;;;;;;3.67;3.30;;;18.20;99.90;;;;;;4227406;28;20271;-75
2022/11/29 06:47:41;;;;;;;6.60;4.13;;;18.30;99.90;;;;;;4226995;27;20219;-75
2022/11/29 06:49:48;;;;;;;4.68;3.30;;;18.30;99.90;;;;;;4221977;28;20711;-74
2022/11/29 06:51:59;;;;;;;6.30;3.78;;;18.30;99.90;;;;;;4221607;28;20676;-74
2022/11/29 06:54:13;;;;;;;5.38;3.50;;;18.30;99.90;;;;;;4227664;28;21036;-74
2022/11/29 06:56:24;;;;;;;7.32;3.65;;;18.40;99.90;;;;;;4227693;28;20218;-74
2022/11/29 06:58:45;;;;;;;4.90;3.80;;;18.30;99.90;;;;;;4226975;28;20230;-74
2022/11/29 07:00:54;;;;;;;4.35;3.45;;;18.40;99.90;;;;;;4223979;28;20209;-74
2022/11/29 07:03:21;;;;;;;5.18;3.97;;;18.40;99.90;;;;;;4226848;28;20976;-74
2022/11/29 07:05:28;;;;;;;5.60;3.78;;;18.40;99.90;;;;;;4224994;28;20623;-74
2022/11/29 07:07:33;;;;;;;5.28;3.85;;;18.50;99.90;;;;;;4227651;28;20890;-75
2022/11/29 07:09:36;;;;;;;4.65;3.20;;;18.50;99.90;;;;;;4225821;28;20263;-75
2022/11/29 07:11:39;;;;;;;5.63;3.47;;;18.50;99.90;;;;;;4227573;28;20214;-74
2022/11/29 07:13:44;;;;;;;4.30;3.42;;;18.50;99.90;;;;;;4223468;28;20263;-75
2022/11/29 07:16:03;;;;;;;5.00;3.88;;;18.50;99.90;;;;;;4218119;28;20222;-74
2022/11/29 07:18:14;;;;;;;4.47;3.20;;;18.60;99.90;;;;;;4224023;28;20229;-74
2022/11/29 07:20:24;;;;;;;4.30;3.17;;;18.60;99.90;;;;;;4212437;28;20214;-74
2022/11/29 07:22:42;;;;;;;5.88;4.03;;;18.60;99.90;;;;;;4213959;28;20296;-75
2022/11/29 07:24:55;;;;;;;5.28;3.38;;;18.70;99.90;;;;;;4219231;28;20214;-75
2022/11/29 07:27:06;;;;;;;6.22;3.42;;;18.60;99.90;;;;;;4219783;28;20616;-74
2022/11/29 07:29:20;;;;;;;5.55;3.58;;;18.70;99.90;;;;;;4224818;28;20252;-74
2022/11/29 07:31:33;;;;;;;4.57;3.08;;;18.70;99.90;;;;;;4215118;28;20214;-74
2022/11/29 07:33:46;;;;;;;6.82;3.55;;;18.70;99.90;;;;;;4219063;28;20210;-74
2022/11/29 07:35:56;;;;;;;5.30;3.22;;;18.70;99.90;;;;;;4228420;28;20661;-74
2022/11/29 07:38:10;;;;;;;5.20;3.58;;;18.70;99.90;;;;;;4229111;27;20261;-74
2022/11/29 07:40:15;;;;;;;4.68;3.25;;;18.70;99.90;;;;;;4224187;28;20238;-74
2022/11/29 07:42:23;;;;;;;5.30;3.78;;;18.80;99.90;;;;;;4220607;28;20226;-74
2022/11/29 07:44:35;;;;;;;5.45;2.95;;;18.70;99.90;;;;;;4227040;28;20330;-74
2022/11/29 07:46:37;;;;;;;4.68;3.22;;;18.70;99.90;;;;;;4227257;28;20542;-74
2022/11/29 07:48:39;;;;;;;4.50;3.45;;;18.80;99.90;;;;;;4216851;28;20218;-75
2022/11/29 07:50:42;;;;;;;5.38;3.63;;;18.80;99.90;;;;;;4221583;28;20262;-75
2022/11/29 07:52:44;;;;;;;5.28;3.63;;;18.80;99.90;;;;;;4214961;28;20263;-75
2022/11/29 07:54:48;;;;;;;5.10;3.63;;;18.80;99.90;;;;;;4224729;28;20241;-75
2022/11/29 07:56:51;;;;;;;5.40;3.60;;;18.80;99.90;;;;;;4227575;28;20214;-75
2022/11/29 07:58:53;;;;;;;6.10;3.80;;;18.80;99.90;;;;;;4225895;28;20221;-75
2022/11/29 08:00:56;;;;;;;7.35;3.58;;;18.80;99.90;;;;;;4226231;28;20214;-75
2022/11/29 08:02:58;;;;;;;5.22;3.47;;;18.80;99.90;;;;;;4227731;28;20626;-75
2022/11/29 08:05:01;;;;;;;5.32;3.45;;;18.80;99.90;;;;;;4225988;28;20210;-75
2022/11/29 08:07:03;;;;;;;3.47;3.00;;;18.80;99.90;;;;;;4225721;28;20263;-75
2022/11/29 08:09:06;;;;;;;4.43;3.17;;;18.80;99.90;;;;;;4225905;28;20258;-75
2022/11/29 08:11:11;;;;;;;5.20;3.42;;;18.80;99.90;;;;;;4223233;28;20215;-75
2022/11/29 08:13:14;;;;;;;4.05;3.25;;;18.80;99.90;;;;;;4224637;28;20274;-75
2022/11/29 08:15:17;;;;;;;4.32;3.05;;;18.80;99.90;;;;;;4225948;28;20251;-75
2022/11/29 08:17:20;;;;;;;4.93;3.33;;;18.90;99.90;;;;;;4225484;28;20226;-75
2022/11/29 08:19:22;;;;;;;5.97;3.33;;;18.90;99.90;;;;;;4225875;28;20750;-75
2022/11/29 08:21:24;;;;;;;5.82;3.45;;;18.80;99.90;;;;;;4233735;27;20240;-75
2022/11/29 08:23:26;;;;;;;8.20;5.32;;;18.80;99.90;;;;;;4236503;27;20260;-75
2022/11/29 08:25:29;;;;;;;10.13;6.28;;;18.80;99.90;;;;;;4240220;27;20243;-75
2022/11/29 08:27:33;;;;;;;11.90;7.70;;;18.70;99.90;;;;;;4232033;27;20321;-75
2022/11/29 08:29:36;;;;;;;8.77;6.72;;;18.50;99.90;;;;;;4239203;27;20929;-75
2022/11/29 08:31:38;;;;;;;9.07;5.10;;;18.50;99.90;;;;;;4236157;27;20612;-74
2022/11/29 08:33:42;;;;;;;9.32;5.65;;;18.50;99.90;;;;;;4239244;27;20213;-75
2022/11/29 08:35:45;;;;;;;9.70;5.07;;;18.50;99.90;;;;;;4236339;27;20286;-75
2022/11/29 08:37:47;;;;;;;6.32;4.45;;;18.70;99.90;;;;;;4238494;27;20262;-75
2022/11/29 08:39:49;;;;;;;6.25;4.60;;;18.70;99.90;;;;;;4239723;27;20225;-74
2022/11/29 08:41:52;;;;;;;6.90;4.30;;;18.80;99.90;;;;;;4239664;27;20677;-75
2022/11/29 08:43:56;;;;;;;6.10;3.90;;;18.80;99.90;;;;;;4241467;27;20221;-75
2022/11/29 08:45:59;;;;;;;5.95;4.10;;;18.80;99.90;;;;;;4240689;27;20265;-74
2022/11/29 08:48:01;;;;;;;6.60;4.53;;;18.80;99.90;;;;;;4239555;27;20582;-75
2022/11/29 08:50:05;;;;;;;4.85;3.72;;;18.80;99.90;;;;;;4238812;27;20608;-75
2022/11/29 08:54:28;;;;;;;6.63;4.28;;;18.90;99.90;;;;;;4239817;27;20189;-75
2022/11/29 08:56:30;;;;;;;5.50;3.80;;;18.90;99.90;;;;;;4242710;27;20620;-74
2022/11/29 08:58:32;;;;;;;5.70;4.72;;;18.90;99.90;;;;;;4238738;27;20256;-76
2022/11/29 09:00:37;;;;;;;4.75;3.70;;;18.90;99.90;;;;;;4238629;27;20317;-75
2022/11/29 09:02:39;;;;;;;5.03;3.55;;;18.90;99.90;;;;;;4237790;27;20618;-75
2022/11/29 09:04:41;;;;;;;7.13;4.00;;;18.90;99.90;;;;;;4240065;28;21082;-75
2022/11/29 09:06:44;;;;;;;5.05;3.40;;;18.90;99.90;;;;;;4240303;27;20221;-75
2022/11/29 09:08:46;;;;;;;5.97;4.07;;;19.00;99.90;;;;;;4240115;28;21155;-75
2022/11/29 09:10:48;;;;;;;4.50;3.65;;;19.00;99.90;;;;;;4237314;27;20657;-75
2022/11/29 09:12:51;;;;;;;6.55;4.72;;;19.00;99.90;;;;;;4236929;27;20213;-76
2022/11/29 09:14:53;;;;;;;5.72;3.67;;;19.00;99.90;;;;;;4237475;28;20221;-74
2022/11/29 09:16:57;;;;;;;4.97;3.55;;;19.00;99.90;;;;;;4237817;28;20217;-75
2022/11/29 09:18:59;;;;;;;5.88;3.92;;;19.00;99.90;;;;;;4242581;28;20243;-75
2022/11/29 09:21:04;;;;;;;6.18;3.78;;;19.00;99.90;;;;;;4243358;28;20294;-75
2022/11/29 09:23:07;;;;;;;4.43;3.70;;;19.10;99.90;;;;;;4242281;28;20238;-75
2022/11/29 09:25:09;;;;;;;5.18;3.22;;;19.00;99.90;;;;;;4237847;27;20217;-75
2022/11/29 09:27:11;;;;;;;5.60;4.03;;;19.10;99.90;;;;;;4238081;28;20969;-75
2022/11/29 09:29:15;;;;;;;5.00;3.60;;;19.10;99.90;;;;;;4241046;28;20213;-75
2022/11/29 09:31:18;;;;;;;6.25;3.70;;;19.10;99.90;;;;;;4234391;28;20209;-74
2022/11/29 09:33:22;;;;;;;5.68;3.92;;;19.10;99.90;;;;;;4238653;27;20922;-74
2022/11/29 09:35:25;;;;;;;5.78;3.70;;;19.10;99.90;;;;;;4237209;27;20738;-75
2022/11/29 09:37:27;;;;;;;6.07;3.80;;;19.10;99.90;;;;;;4238899;27;20209;-75
2022/11/29 09:39:30;;;;;;;4.68;3.40;;;19.10;99.90;;;;;;4246214;27;20286;-75
2022/11/29 09:41:58;;;;;;;5.43;3.15;;;19.20;99.90;;;;;;4245329;27;20681;-75
2022/11/29 09:44:07;;;;;;;4.70;3.20;;;19.20;99.90;;;;;;4244112;27;20621;-75
2022/11/29 09:46:17;;;;;;;5.13;3.42;;;19.20;99.90;;;;;;4245311;27;20285;-75
2022/11/29 09:48:47;;;;;;;5.05;3.33;;;19.20;99.90;;;;;;4239124;27;20817;-75
2022/11/29 09:50:54;;;;;;;5.50;3.33;;;19.20;99.90;;;;;;4228083;27;20205;-75
2022/11/29 09:53:06;;;;;;;5.07;3.90;;;19.20;99.90;;;;;;4238075;27;20270;-76
2022/11/29 09:55:21;;;;;;;4.72;3.67;;;19.30;99.90;;;;;;4239077;27;20222;-75
2022/11/29 09:57:25;;;;;;;4.20;3.55;;;19.30;99.90;;;;;;4241857;27;20262;-75
2022/11/29 09:59:36;;;;;;;3.83;3.10;;;19.30;99.90;;;;;;4241918;27;20302;-75
2022/11/29 10:01:42;;;;;;;4.20;2.80;;;19.30;99.90;;;;;;4235271;27;20258;-75
2022/11/29 10:03:51;;;;;;;5.55;3.50;;;19.30;99.90;;;;;;4241824;27;20266;-74
2022/11/29 10:05:57;;;;;;;4.13;3.10;;;19.30;99.90;;;;;;4240516;27;20287;-75
2022/11/29 10:08:05;;;;;;;6.20;3.58;;;19.30;99.90;;;;;;4243507;27;20269;-74
2022/11/29 10:10:15;;;;;;;5.10;3.67;;;19.30;99.90;;;;;;4242260;27;20212;-74
2022/11/29 10:12:20;;;;;;;4.43;3.33;;;19.30;99.90;;;;;;4243832;27;20209;-75
2022/11/29 10:14:26;;;;;;;4.63;3.65;;;19.40;99.90;;;;;;4239583;27;20213;-75
2022/11/29 10:16:39;;;;;;;3.92;3.30;;;19.40;99.90;;;;;;4238391;27;20217;-74
2022/11/29 10:18:48;;;;;;;5.38;3.40;;;19.40;99.90;;;;;;4237552;27;20213;-75
2022/11/29 10:20:53;;;;;;;3.63;3.00;;;19.40;99.90;;;;;;4237726;27;20668;-74
2022/11/29 10:23:01;;;;;;;4.93;3.20;;;19.40;99.90;;;;;;4227211;27;20686;-75
2022/11/29 10:25:06;;;;;;;5.07;3.55;;;19.50;99.90;;;;;;4227324;27;20213;-74
2022/11/29 10:27:21;;;;;;;3.80;3.20;;;19.50;99.90;;;;;;4225462;28;20217;-75
2022/11/29 10:29:24;;;;;;;5.10;3.88;;;19.40;99.90;;;;;;4219629;27;20265;-73
2022/11/29 10:31:31;;;;;;;4.03;3.28;;;19.50;99.90;;;;;;4225577;28;20275;-74
2022/11/29 10:33:37;;;;;;;4.63;3.25;;;19.50;99.90;;;;;;4225499;27;20235;-74
2022/11/29 10:35:40;;;;;;;4.85;3.45;;;19.50;99.90;;;;;;4228287;27;20267;-75
2022/11/29 10:37:44;;;;;;;4.65;3.50;;;19.50;99.90;;;;;;4229595;27;20229;-75
2022/11/29 10:39:49;;;;;;;4.57;3.10;;;19.50;99.90;;;;;;4224311;28;20225;-73
2022/11/29 10:41:55;;;;;;;5.07;3.53;;;19.60;99.90;;;;;;4227963;27;20245;-74
2022/11/29 10:43:59;;;;;;;4.60;3.45;;;19.60;99.90;;;;;;4226144;27;20216;-74
2022/11/29 10:46:01;;;;;;;5.28;3.50;;;19.60;99.90;;;;;;4227048;28;20623;-75
2022/11/29 10:48:07;;;;;;;4.82;3.58;;;19.60;99.90;;;;;;4226619;28;20675;-76
2022/11/29 10:50:23;;;;;;;5.50;3.13;;;19.70;99.90;;;;;;4230978;27;20217;-75
2022/11/29 10:52:27;;;;;;;5.78;3.67;;;19.70;99.90;;;;;;4224974;27;20287;-75
2022/11/29 10:54:38;;;;;;;4.53;3.25;;;19.80;99.90;;;;;;4218299;27;20222;-77
2022/11/29 10:56:42;;;;;;;4.75;3.20;;;19.80;99.90;;;;;;4229670;27;20209;-81
2022/11/29 10:58:56;;;;;;;6.65;3.97;;;19.80;99.90;;;;;;4227840;27;20594;-82
2022/11/29 11:01:00;;;;;;;4.10;3.38;;;19.90;99.90;;;;;;4227484;27;20304;-77
2022/11/29 11:03:16;;;;;;;4.70;3.78;;;19.90;99.90;;;;;;4227982;27;20611;-82
2022/11/29 11:05:26;;;;;;;4.05;3.20;;;19.90;99.90;;;;;;4226664;27;20641;-75
2022/11/29 11:07:33;;;;;;;4.90;3.70;;;19.90;99.90;;;;;;4224218;28;20260;-79
2022/11/29 11:09:40;;;;;;;6.50;3.55;;;20.00;99.90;;;;;;4227257;27;20267;-80
2022/11/29 11:11:51;;;;;;;4.20;3.05;;;20.00;99.90;;;;;;4225743;27;20213;-78
2022/11/29 11:14:01;;;;;;;6.05;3.58;;;20.00;99.90;;;;;;4225090;28;20578;-81
2022/11/29 11:16:15;;;;;;;4.18;3.00;;;20.00;99.90;;;;;;4223712;27;20218;-78